Time;durP1;ratioP1;P1;durP2;ratioP2;P2;SDS_P1;SDS_P2;PMS_P1;PMS_P2;Temp;Humidity;BMP_temperature;BMP_pressure;BME280_temperature;BME280_humidity;BME280_pressure;Samples;Min_cycle;Max_cycle;Signal;HPM_P1;HPM_P2
2022/03/13 00:01:46;;;;;;;4.20;2.70;;;;;;;;;;4930856;29;20204;-65
2022/03/13 00:04:15;;;;;;;6.47;3.70;;;;;;;;;;4942270;29;20593;-63
2022/03/13 00:06:43;;;;;;;3.20;2.77;;;;;;;;;;4944321;29;20206;-62
2022/03/13 00:09:13;;;;;;;3.00;2.70;;;;;;;;;;4932738;29;20248;-63
2022/03/13 00:11:43;;;;;;;5.67;3.23;;;;;;;;;;4930612;29;20773;-63
2022/03/13 00:14:10;;;;;;;7.73;3.73;;;;;;;;;;4944180;29;20219;-63
2022/03/13 00:16:38;;;;;;;3.67;2.83;;;;;;;;;;4937663;29;20246;-63
2022/03/13 00:19:07;;;;;;;3.83;2.77;;;;;;;;;;4948943;29;20218;-63
2022/03/13 00:21:36;;;;;;;7.67;3.03;;;;;;;;;;4949402;29;20290;-63
2022/03/13 00:24:03;;;;;;;3.80;2.03;;;;;;;;;;4949132;29;20234;-62
2022/03/13 00:26:34;;;;;;;3.40;2.33;;;;;;;;;;4948786;28;20248;-63
2022/03/13 00:29:01;;;;;;;4.33;3.20;;;;;;;;;;4941114;29;20789;-63
2022/03/13 00:31:29;;;;;;;5.53;2.90;;;;;;;;;;4946723;29;20935;-63
2022/03/13 00:33:56;;;;;;;8.90;2.70;;;;;;;;;;4940241;29;20770;-63
2022/03/13 00:36:23;;;;;;;4.80;3.20;;;;;;;;;;4942967;29;20236;-63
2022/03/13 00:38:51;;;;;;;2.67;2.47;;;;;;;;;;4938464;29;20222;-62
2022/03/13 00:41:18;;;;;;;3.80;2.60;;;;;;;;;;4935704;29;20213;-62
2022/03/13 00:43:45;;;;;;;5.13;3.47;;;;;;;;;;4948952;29;20215;-62
2022/03/13 00:46:12;;;;;;;3.53;2.47;;;;;;;;;;4943770;29;20213;-62
2022/03/13 00:48:41;;;;;;;4.60;2.87;;;;;;;;;;4936725;29;20321;-63
2022/03/13 00:51:08;;;;;;;3.33;2.67;;;;;;;;;;4948744;28;20295;-63
2022/03/13 00:53:35;;;;;;;3.23;2.10;;;;;;;;;;4947739;29;20203;-63
2022/03/13 00:56:04;;;;;;;5.70;2.77;;;;;;;;;;4949129;29;20301;-63
2022/03/13 00:58:31;;;;;;;5.00;2.27;;;;;;;;;;4941719;28;20216;-64
2022/03/13 01:00:58;;;;;;;4.13;2.60;;;;;;;;;;4941668;29;20634;-62
2022/03/13 01:03:48;;;;;;;7.30;3.70;;;;;;;;;;4947916;29;20671;-62
2022/03/13 01:06:15;;;;;;;5.17;3.17;;;;;;;;;;4942250;28;20905;-63
2022/03/13 01:08:44;;;;;;;3.13;2.40;;;;;;;;;;4947759;29;20215;-62
2022/03/13 01:11:13;;;;;;;4.73;2.70;;;;;;;;;;4942973;29;20364;-62
2022/03/13 01:13:40;;;;;;;9.50;4.53;;;;;;;;;;4948451;29;20204;-62
2022/03/13 01:16:15;;;;;;;3.13;2.67;;;;;;;;;;4947803;29;20238;-62
2022/03/13 01:18:48;;;;;;;7.77;3.70;;;;;;;;;;4947457;29;20217;-63
2022/03/13 01:21:15;;;;;;;6.60;3.57;;;;;;;;;;4937671;29;21107;-63
2022/03/13 01:23:43;;;;;;;7.03;3.67;;;;;;;;;;4938017;29;20215;-62
2022/03/13 01:26:37;;;;;;;6.63;3.77;;;;;;;;;;4936268;29;20232;-65
2022/03/13 01:29:07;;;;;;;5.90;2.80;;;;;;;;;;4915806;29;20777;-63
2022/03/13 01:31:35;;;;;;;4.53;3.37;;;;;;;;;;4938633;29;20651;-62
2022/03/13 01:34:03;;;;;;;10.17;4.43;;;;;;;;;;4944861;29;20219;-62
2022/03/13 01:36:30;;;;;;;7.60;3.67;;;;;;;;;;4945519;29;20234;-63
2022/03/13 01:38:58;;;;;;;3.67;2.90;;;;;;;;;;4948204;29;20219;-63
2022/03/13 01:41:27;;;;;;;6.67;2.97;;;;;;;;;;4947548;29;20207;-63
2022/03/13 01:43:54;;;;;;;3.90;3.10;;;;;;;;;;4945476;29;20207;-63
2022/03/13 01:46:23;;;;;;;6.03;2.37;;;;;;;;;;4947003;29;20225;-63
2022/03/13 01:48:53;;;;;;;3.93;3.00;;;;;;;;;;4948455;29;20605;-63
2022/03/13 01:51:21;;;;;;;4.43;2.97;;;;;;;;;;4933243;28;20216;-64
2022/03/13 01:53:51;;;;;;;6.03;3.23;;;;;;;;;;4934385;29;20583;-64
2022/03/13 01:56:18;;;;;;;4.67;3.33;;;;;;;;;;4939271;29;20218;-62
2022/03/13 01:58:46;;;;;;;4.67;3.20;;;;;;;;;;4928907;29;20223;-62
2022/03/13 02:01:13;;;;;;;5.20;3.20;;;;;;;;;;4940413;29;20207;-63
2022/03/13 02:03:41;;;;;;;4.13;3.10;;;;;;;;;;4945594;28;20221;-63
2022/03/13 02:06:08;;;;;;;9.10;3.60;;;;;;;;;;4944090;29;20222;-64
2022/03/13 02:08:37;;;;;;;7.10;3.83;;;;;;;;;;4936833;29;20215;-63
2022/03/13 02:11:04;;;;;;;3.67;3.37;;;;;;;;;;4937733;29;20242;-63
2022/03/13 02:13:34;;;;;;;6.43;2.60;;;;;;;;;;4932359;29;20215;-62
2022/03/13 02:16:01;;;;;;;3.93;2.83;;;;;;;;;;4936391;29;20286;-63
2022/03/13 02:18:28;;;;;;;4.90;2.70;;;;;;;;;;4936639;29;20687;-63
2022/03/13 02:20:57;;;;;;;6.23;2.90;;;;;;;;;;4935537;29;20211;-63
2022/03/13 02:23:26;;;;;;;3.20;2.70;;;;;;;;;;4937840;28;20220;-63
2022/03/13 02:25:54;;;;;;;3.43;3.07;;;;;;;;;;4935753;29;20239;-62
2022/03/13 02:28:21;;;;;;;4.63;2.83;;;;;;;;;;4946726;29;20242;-63
2022/03/13 02:30:49;;;;;;;3.93;3.00;;;;;;;;;;4944096;29;20692;-62
2022/03/13 02:33:18;;;;;;;4.83;3.13;;;;;;;;;;4936904;29;20224;-61
2022/03/13 02:35:49;;;;;;;5.17;2.67;;;;;;;;;;4931650;29;20211;-63
2022/03/13 02:38:16;;;;;;;2.87;2.37;;;;;;;;;;4927838;29;20330;-62
2022/03/13 02:40:45;;;;;;;4.73;3.47;;;;;;;;;;4936045;29;20218;-62
2022/03/13 02:43:12;;;;;;;4.90;3.10;;;;;;;;;;4930537;29;20215;-62
2022/03/13 02:45:39;;;;;;;2.30;2.10;;;;;;;;;;4938152;29;20214;-62
2022/03/13 02:48:07;;;;;;;4.13;2.83;;;;;;;;;;4925077;29;20207;-62
2022/03/13 02:50:34;;;;;;;4.60;3.37;;;;;;;;;;4946564;29;20686;-63
2022/03/13 02:53:02;;;;;;;3.23;2.93;;;;;;;;;;4943669;29;20217;-63
2022/03/13 02:55:29;;;;;;;3.20;2.40;;;;;;;;;;4940316;29;20207;-63
2022/03/13 02:57:58;;;;;;;4.53;2.60;;;;;;;;;;4942431;29;20238;-63
2022/03/13 03:00:40;;;;;;;3.70;2.23;;;;;;;;;;4945278;29;20745;-63
2022/03/13 03:03:07;;;;;;;5.03;2.80;;;;;;;;;;4945350;29;20222;-62
2022/03/13 03:05:34;;;;;;;4.00;3.10;;;;;;;;;;4933023;29;20257;-63
2022/03/13 03:08:01;;;;;;;3.63;2.77;;;;;;;;;;4942318;29;20207;-63
2022/03/13 03:10:28;;;;;;;3.40;2.77;;;;;;;;;;4945605;29;20603;-63
2022/03/13 03:12:57;;;;;;;5.70;3.03;;;;;;;;;;4941783;29;20396;-63
2022/03/13 03:15:26;;;;;;;2.53;2.37;;;;;;;;;;4931075;29;20219;-63
2022/03/13 03:17:53;;;;;;;4.40;2.90;;;;;;;;;;4927394;29;20239;-63
2022/03/13 03:20:20;;;;;;;3.13;1.97;;;;;;;;;;4942718;29;20628;-63
2022/03/13 03:22:47;;;;;;;2.67;2.37;;;;;;;;;;4946112;28;20219;-63
2022/03/13 03:25:15;;;;;;;3.43;2.93;;;;;;;;;;4941624;29;20230;-63
2022/03/13 03:27:42;;;;;;;4.83;2.53;;;;;;;;;;4927438;29;20236;-64
2022/03/13 03:30:12;;;;;;;3.63;3.03;;;;;;;;;;4940175;29;20213;-64
2022/03/13 03:32:39;;;;;;;2.73;2.33;;;;;;;;;;4938280;29;20219;-63
2022/03/13 03:35:07;;;;;;;1.57;1.50;;;;;;;;;;4940551;29;20571;-63
2022/03/13 03:37:34;;;;;;;4.77;2.43;;;;;;;;;;4940610;28;20253;-64
2022/03/13 03:40:01;;;;;;;3.60;2.60;;;;;;;;;;4945412;29;20215;-63
2022/03/13 03:42:28;;;;;;;3.07;1.13;;;;;;;;;;4945184;29;20449;-63
2022/03/13 03:44:55;;;;;;;5.57;1.93;;;;;;;;;;4935106;29;20212;-64
2022/03/13 03:47:24;;;;;;;3.43;2.87;;;;;;;;;;4937469;29;20269;-63
2022/03/13 03:49:51;;;;;;;4.13;3.13;;;;;;;;;;4945499;29;20207;-64
2022/03/13 03:52:18;;;;;;;4.43;3.10;;;;;;;;;;4945673;29;20215;-63
2022/03/13 03:54:45;;;;;;;6.37;3.60;;;;;;;;;;4931956;29;20225;-63
2022/03/13 03:57:12;;;;;;;5.60;2.73;;;;;;;;;;4934370;29;20206;-64
2022/03/13 03:59:39;;;;;;;6.63;2.77;;;;;;;;;;4945585;29;20215;-63
2022/03/13 04:02:06;;;;;;;4.60;3.67;;;;;;;;;;4933508;29;20218;-64
2022/03/13 04:04:34;;;;;;;8.43;3.07;;;;;;;;;;4945380;29;20373;-63
2022/03/13 04:07:01;;;;;;;5.90;2.63;;;;;;;;;;4945239;29;20211;-64
2022/03/13 04:09:28;;;;;;;1.83;1.73;;;;;;;;;;4945487;29;20222;-63
2022/03/13 04:11:56;;;;;;;3.40;2.83;;;;;;;;;;4945499;29;20215;-64
2022/03/13 04:14:23;;;;;;;4.13;2.63;;;;;;;;;;4945630;29;20656;-63
2022/03/13 04:16:53;;;;;;;4.33;2.93;;;;;;;;;;4944853;29;20207;-63
2022/03/13 04:19:21;;;;;;;5.50;2.87;;;;;;;;;;4946332;29;20234;-64
2022/03/13 04:21:50;;;;;;;3.20;2.63;;;;;;;;;;4945256;29;20244;-64
2022/03/13 04:24:17;;;;;;;3.30;2.80;;;;;;;;;;4947325;28;20215;-63
2022/03/13 04:26:44;;;;;;;3.47;2.43;;;;;;;;;;4955778;28;20234;-63
2022/03/13 04:29:11;;;;;;;5.47;3.03;;;;;;;;;;4957705;28;20595;-63
2022/03/13 04:31:39;;;;;;;5.47;3.57;;;;;;;;;;4957216;28;20233;-64
2022/03/13 04:34:07;;;;;;;3.00;2.10;;;;;;;;;;4961494;28;20207;-64
2022/03/13 04:36:37;;;;;;;4.73;2.50;;;;;;;;;;4958861;28;20207;-65
2022/03/13 04:39:06;;;;;;;3.13;2.90;;;;;;;;;;4959229;28;20230;-64
2022/03/13 04:41:33;;;;;;;2.57;2.37;;;;;;;;;;4957448;28;20227;-64
2022/03/13 04:44:01;;;;;;;8.77;3.77;;;;;;;;;;4961539;28;20213;-63
2022/03/13 04:46:28;;;;;;;7.70;3.03;;;;;;;;;;4962699;28;20206;-64
2022/03/13 04:48:55;;;;;;;6.07;3.10;;;;;;;;;;4960223;28;20207;-64
2022/03/13 04:51:22;;;;;;;3.77;2.67;;;;;;;;;;4959111;28;20242;-64
2022/03/13 04:53:49;;;;;;;1.97;1.73;;;;;;;;;;4956006;28;20857;-64
2022/03/13 04:56:17;;;;;;;3.37;2.63;;;;;;;;;;4962156;28;20689;-64
2022/03/13 04:58:44;;;;;;;6.10;3.07;;;;;;;;;;4944390;28;20249;-64
2022/03/13 05:01:11;;;;;;;6.33;2.87;;;;;;;;;;4941765;29;20218;-65
2022/03/13 05:03:38;;;;;;;2.80;2.10;;;;;;;;;;4944676;29;20214;-64
2022/03/13 05:06:05;;;;;;;4.00;2.27;;;;;;;;;;4942359;29;20203;-64
2022/03/13 05:08:33;;;;;;;3.03;2.37;;;;;;;;;;4940046;29;20581;-64
2022/03/13 05:11:00;;;;;;;6.57;2.80;;;;;;;;;;4942679;29;20219;-64
2022/03/13 05:13:29;;;;;;;3.40;1.33;;;;;;;;;;4956207;28;20298;-64
2022/03/13 05:15:56;;;;;;;3.47;2.10;;;;;;;;;;4960734;28;20214;-64
2022/03/13 05:18:23;;;;;;;4.00;2.27;;;;;;;;;;4962657;28;20279;-63
2022/03/13 05:20:50;;;;;;;5.30;2.90;;;;;;;;;;4962002;28;20205;-64
2022/03/13 05:23:17;;;;;;;3.67;2.33;;;;;;;;;;4960648;28;20218;-64
2022/03/13 05:25:44;;;;;;;4.17;2.67;;;;;;;;;;4958489;28;20238;-64
2022/03/13 05:28:11;;;;;;;3.40;2.47;;;;;;;;;;4959371;28;20238;-64
2022/03/13 05:30:40;;;;;;;4.67;3.00;;;;;;;;;;4961800;28;20214;-64
2022/03/13 05:33:07;;;;;;;5.80;2.43;;;;;;;;;;4957273;28;20582;-65
2022/03/13 05:35:34;;;;;;;2.73;2.30;;;;;;;;;;4961345;28;20241;-64
2022/03/13 05:38:01;;;;;;;4.97;2.53;;;;;;;;;;4959520;28;20238;-65
2022/03/13 05:40:29;;;;;;;2.93;1.63;;;;;;;;;;4962245;28;20221;-65
2022/03/13 05:42:58;;;;;;;3.20;2.90;;;;;;;;;;4957831;28;20217;-63
2022/03/13 05:45:26;;;;;;;2.13;1.90;;;;;;;;;;4957709;28;20301;-63
2022/03/13 05:47:58;;;;;;;3.50;2.50;;;;;;;;;;4946604;29;20217;-63
2022/03/13 05:50:26;;;;;;;5.50;2.67;;;;;;;;;;4933937;29;20270;-63
2022/03/13 05:52:56;;;;;;;3.90;2.50;;;;;;;;;;4949056;29;20214;-63
2022/03/13 05:55:25;;;;;;;3.97;1.90;;;;;;;;;;4951942;29;20652;-63
2022/03/13 05:57:52;;;;;;;4.80;2.60;;;;;;;;;;4940987;29;20221;-62
2022/03/13 06:00:21;;;;;;;2.80;2.30;;;;;;;;;;4950161;29;20206;-62
2022/03/13 06:02:48;;;;;;;2.77;2.40;;;;;;;;;;4951529;29;20228;-63
2022/03/13 06:05:17;;;;;;;2.07;1.87;;;;;;;;;;4946506;29;20214;-62
2022/03/13 06:07:45;;;;;;;2.63;1.90;;;;;;;;;;4938030;29;20682;-64
2022/03/13 06:10:12;;;;;;;2.87;2.10;;;;;;;;;;4944483;29;20716;-64
2022/03/13 06:12:39;;;;;;;7.50;2.37;;;;;;;;;;4951754;29;20217;-62
2022/03/13 06:15:07;;;;;;;3.90;2.97;;;;;;;;;;4946788;29;20232;-65
2022/03/13 06:17:38;;;;;;;4.10;2.80;;;;;;;;;;4944086;29;20219;-62
2022/03/13 06:20:07;;;;;;;5.17;2.33;;;;;;;;;;4943817;29;20205;-64
2022/03/13 06:22:36;;;;;;;4.57;2.60;;;;;;;;;;4951520;29;20247;-65
2022/03/13 06:25:03;;;;;;;3.10;2.00;;;;;;;;;;4942891;29;20585;-64
2022/03/13 06:27:30;;;;;;;3.10;2.57;;;;;;;;;;4946959;28;20235;-65
2022/03/13 06:30:00;;;;;;;3.23;2.47;;;;;;;;;;4932132;29;20211;-62
2022/03/13 06:32:28;;;;;;;2.20;1.90;;;;;;;;;;4946426;29;20207;-62
2022/03/13 06:34:55;;;;;;;9.20;2.93;;;;;;;;;;4950518;29;20209;-63
2022/03/13 06:37:22;;;;;;;1.53;1.43;;;;;;;;;;4950888;29;20210;-63
2022/03/13 06:39:51;;;;;;;3.00;2.17;;;;;;;;;;4950303;29;20600;-63
2022/03/13 06:42:18;;;;;;;2.40;2.20;;;;;;;;;;4950994;29;20215;-62
2022/03/13 06:44:45;;;;;;;4.67;2.83;;;;;;;;;;4944878;29;20281;-62
2022/03/13 06:47:13;;;;;;;3.93;2.13;;;;;;;;;;4938269;29;20288;-62
2022/03/13 06:49:41;;;;;;;5.23;3.10;;;;;;;;;;4938917;29;20686;-65
2022/03/13 06:52:08;;;;;;;0.50;0.50;;;;;;;;;;4931852;29;20218;-62
2022/03/13 06:54:35;;;;;;;3.80;2.87;;;;;;;;;;4940577;29;20210;-64
2022/03/13 06:57:04;;;;;;;3.03;2.17;;;;;;;;;;4950616;28;20215;-62
2022/03/13 06:59:31;;;;;;;5.40;3.43;;;;;;;;;;4949779;29;20849;-63
2022/03/13 07:01:58;;;;;;;4.70;2.93;;;;;;;;;;4948670;29;20221;-64
2022/03/13 07:04:25;;;;;;;2.73;2.40;;;;;;;;;;4949255;28;20266;-62
2022/03/13 07:06:52;;;;;;;3.03;1.70;;;;;;;;;;4940461;29;20208;-65
2022/03/13 07:09:19;;;;;;;2.03;1.73;;;;;;;;;;4934016;29;20701;-63
2022/03/13 07:11:47;;;;;;;2.50;2.13;;;;;;;;;;4950107;29;20218;-63
2022/03/13 07:14:19;;;;;;;1.53;1.10;;;;;;;;;;4938990;29;20216;-62
2022/03/13 07:16:47;;;;;;;4.60;2.77;;;;;;;;;;4944487;29;20218;-62
2022/03/13 07:19:14;;;;;;;3.83;2.50;;;;;;;;;;4937222;29;20314;-63
2022/03/13 07:21:41;;;;;;;9.80;2.87;;;;;;;;;;4948290;29;20211;-63
2022/03/13 07:24:08;;;;;;;1.23;1.20;;;;;;;;;;4950508;29;20215;-63
2022/03/13 07:26:35;;;;;;;2.77;2.57;;;;;;;;;;4948311;29;20226;-63
2022/03/13 07:29:02;;;;;;;1.97;1.87;;;;;;;;;;4947694;29;20242;-62
2022/03/13 07:31:31;;;;;;;1.43;1.40;;;;;;;;;;4948500;29;20246;-63
2022/03/13 07:33:58;;;;;;;7.37;2.47;;;;;;;;;;4952238;28;20218;-63
2022/03/13 07:36:25;;;;;;;2.97;1.57;;;;;;;;;;4950088;29;20690;-63
2022/03/13 07:38:52;;;;;;;2.33;2.13;;;;;;;;;;4934527;29;20235;-63
2022/03/13 07:41:20;;;;;;;2.10;1.57;;;;;;;;;;4939261;29;20216;-62
2022/03/13 07:43:47;;;;;;;1.97;1.47;;;;;;;;;;4950395;29;20222;-64
2022/03/13 07:46:14;;;;;;;1.30;1.20;;;;;;;;;;4956160;28;20215;-63
2022/03/13 07:48:44;;;;;;;1.97;1.87;;;;;;;;;;4958736;28;20677;-63
2022/03/13 07:51:11;;;;;;;2.77;1.37;;;;;;;;;;4956976;28;20853;-63
2022/03/13 07:53:38;;;;;;;4.33;2.43;;;;;;;;;;4962401;28;20209;-63
2022/03/13 07:56:05;;;;;;;4.07;2.63;;;;;;;;;;4958409;28;20202;-63
2022/03/13 07:58:34;;;;;;;1.97;1.87;;;;;;;;;;4959144;28;20227;-63
2022/03/13 08:01:01;;;;;;;2.77;2.10;;;;;;;;;;4956691;28;20595;-63
2022/03/13 08:03:29;;;;;;;2.67;2.47;;;;;;;;;;4950112;29;20463;-63
2022/03/13 08:05:58;;;;;;;2.17;1.97;;;;;;;;;;4949612;29;20274;-63
2022/03/13 08:08:25;;;;;;;4.63;2.57;;;;;;;;;;4949939;28;20214;-64
2022/03/13 08:10:52;;;;;;;3.23;2.50;;;;;;;;;;4943884;29;20219;-64
2022/03/13 08:13:19;;;;;;;4.77;2.40;;;;;;;;;;4941347;29;20217;-63
2022/03/13 08:15:46;;;;;;;2.70;2.50;;;;;;;;;;4946744;29;20203;-64
2022/03/13 08:18:13;;;;;;;6.07;2.17;;;;;;;;;;4950672;29;20409;-62
2022/03/13 08:20:41;;;;;;;2.00;1.90;;;;;;;;;;4946856;29;20238;-60
2022/03/13 08:23:09;;;;;;;2.43;2.23;;;;;;;;;;4952235;29;20552;-62
2022/03/13 08:25:36;;;;;;;3.07;2.77;;;;;;;;;;4936473;29;20238;-62
2022/03/13 08:28:04;;;;;;;2.47;2.27;;;;;;;;;;4947648;28;20313;-62
2022/03/13 08:30:31;;;;;;;4.23;2.27;;;;;;;;;;4944226;29;20237;-61
2022/03/13 08:32:58;;;;;;;2.13;2.03;;;;;;;;;;4946675;29;20217;-62
2022/03/13 08:35:25;;;;;;;3.93;3.07;;;;;;;;;;4953291;29;20203;-62
2022/03/13 08:37:57;;;;;;;2.33;2.23;;;;;;;;;;4952022;28;20231;-64
2022/03/13 08:40:26;;;;;;;2.83;2.50;;;;;;;;;;4951781;29;20245;-64
2022/03/13 08:42:53;;;;;;;1.57;1.47;;;;;;;;;;4943615;29;20211;-65
2022/03/13 08:45:20;;;;;;;4.33;2.80;;;;;;;;;;4944907;29;20203;-64
2022/03/13 08:47:48;;;;;;;4.57;3.20;;;;;;;;;;4941788;29;20219;-63
2022/03/13 08:50:16;;;;;;;6.07;2.63;;;;;;;;;;4935062;29;20211;-67
2022/03/13 08:52:43;;;;;;;4.40;3.67;;;;;;;;;;4936234;29;20567;-63
2022/03/13 08:55:13;;;;;;;5.30;2.77;;;;;;;;;;4953165;29;20721;-63
2022/03/13 08:57:42;;;;;;;41.70;9.30;;;;;;;;;;4949528;29;20210;-63
2022/03/13 09:00:10;;;;;;;4.90;3.90;;;;;;;;;;4952350;29;20251;-65
2022/03/13 09:02:37;;;;;;;2.60;2.40;;;;;;;;;;4948123;29;20294;-65
2022/03/13 09:05:04;;;;;;;3.17;2.27;;;;;;;;;;4945087;28;20218;-65
2022/03/13 09:07:32;;;;;;;5.90;3.20;;;;;;;;;;4950414;29;20926;-65
2022/03/13 09:09:59;;;;;;;3.77;2.60;;;;;;;;;;4950952;29;20293;-65
2022/03/13 09:12:26;;;;;;;3.20;2.97;;;;;;;;;;4949928;29;20207;-65
2022/03/13 09:14:54;;;;;;;3.17;2.77;;;;;;;;;;4949122;29;20219;-65
2022/03/13 09:17:21;;;;;;;2.97;2.53;;;;;;;;;;4951551;29;20722;-65
2022/03/13 09:19:48;;;;;;;5.53;1.43;;;;;;;;;;4948991;28;20239;-65
2022/03/13 09:22:17;;;;;;;3.10;2.57;;;;;;;;;;4948944;29;20203;-65
2022/03/13 09:24:45;;;;;;;5.47;3.23;;;;;;;;;;4935453;29;20323;-65
2022/03/13 09:27:12;;;;;;;4.80;3.00;;;;;;;;;;4951590;28;20270;-65
2022/03/13 09:29:39;;;;;;;6.17;2.30;;;;;;;;;;4949569;29;20203;-65
2022/03/13 09:32:08;;;;;;;2.43;2.20;;;;;;;;;;4952660;29;20296;-65
2022/03/13 09:34:35;;;;;;;3.07;2.13;;;;;;;;;;4951094;29;20210;-65
2022/03/13 09:37:02;;;;;;;3.50;3.20;;;;;;;;;;4952019;29;20222;-65
2022/03/13 09:39:30;;;;;;;4.27;2.83;;;;;;;;;;4940307;29;20232;-65
2022/03/13 09:41:57;;;;;;;4.43;3.10;;;;;;;;;;4951252;29;20615;-65
2022/03/13 09:44:25;;;;;;;2.40;2.20;;;;;;;;;;4951656;29;20753;-65
2022/03/13 09:46:52;;;;;;;3.43;3.07;;;;;;;;;;4947168;29;20687;-65
2022/03/13 09:49:23;;;;;;;4.77;3.03;;;;;;;;;;4950133;29;20213;-64
2022/03/13 09:51:50;;;;;;;5.60;2.90;;;;;;;;;;4936126;29;20212;-65
2022/03/13 09:54:17;;;;;;;4.60;3.07;;;;;;;;;;4951580;29;20215;-64
2022/03/13 09:56:44;;;;;;;4.70;2.70;;;;;;;;;;4950171;29;20234;-65
2022/03/13 09:59:11;;;;;;;2.43;2.27;;;;;;;;;;4950533;29;20238;-64
2022/03/13 10:01:38;;;;;;;3.20;2.90;;;;;;;;;;4938477;29;20669;-64
2022/03/13 10:04:06;;;;;;;6.63;4.18;;;;;;;;;;4945743;29;20455;-67
2022/03/13 10:06:55;;;;;;;5.03;3.77;;;;;;;;;;4951230;29;20710;-64
2022/03/13 10:09:29;;;;;;;4.32;3.70;;;;;;;;;;4950696;29;20482;-65
2022/03/13 10:12:04;;;;;;;4.67;3.27;;;;;;;;;;4950127;29;20316;-63
2022/03/13 10:14:31;;;;;;;4.73;3.77;;;;;;;;;;4951807;29;20215;-62
2022/03/13 10:16:59;;;;;;;3.97;3.57;;;;;;;;;;4947994;29;20219;-61
2022/03/13 10:19:28;;;;;;;3.10;2.83;;;;;;;;;;4932389;29;20227;-63
2022/03/13 10:22:07;;;;;;;3.40;3.10;;;;;;;;;;4939205;29;20235;-64
2022/03/13 10:24:41;;;;;;;3.30;2.60;;;;;;;;;;4951702;29;20220;-64
2022/03/13 10:27:15;;;;;;;4.37;3.60;;;;;;;;;;4941418;28;20207;-64
2022/03/13 10:29:43;;;;;;;3.90;2.83;;;;;;;;;;4939171;29;20203;-63
2022/03/13 10:32:10;;;;;;;4.80;3.00;;;;;;;;;;4937895;28;20231;-64
2022/03/13 10:34:38;;;;;;;6.40;3.20;;;;;;;;;;4932547;29;20203;-66
2022/03/13 10:37:07;;;;;;;3.57;3.27;;;;;;;;;;4946698;29;20207;-64
2022/03/13 10:39:34;;;;;;;5.90;3.50;;;;;;;;;;4951353;29;20235;-63
2022/03/13 10:42:03;;;;;;;3.17;2.97;;;;;;;;;;4949450;28;20632;-64
2022/03/13 10:44:34;;;;;;;3.27;3.00;;;;;;;;;;4949934;29;20214;-63
2022/03/13 10:47:04;;;;;;;7.80;4.50;;;;;;;;;;4935629;29;20250;-63
2022/03/13 10:49:37;;;;;;;4.23;3.20;;;;;;;;;;4949298;29;20210;-63
2022/03/13 10:52:10;;;;;;;3.97;2.73;;;;;;;;;;4947883;29;20270;-65
2022/03/13 10:54:38;;;;;;;4.30;3.50;;;;;;;;;;4934838;28;20696;-64
2022/03/13 10:57:06;;;;;;;3.33;2.90;;;;;;;;;;4950838;29;20242;-64
2022/03/13 10:59:33;;;;;;;4.43;2.70;;;;;;;;;;4950678;29;20231;-64
2022/03/13 11:02:12;;;;;;;3.70;2.60;;;;;;;;;;4950316;29;20226;-64
2022/03/13 11:04:46;;;;;;;4.63;3.47;;;;;;;;;;4934694;29;20241;-65
2022/03/13 11:07:15;;;;;;;3.30;3.00;;;;;;;;;;4950749;28;20218;-64
2022/03/13 11:09:42;;;;;;;5.50;4.10;;;;;;;;;;4949272;29;20210;-65
2022/03/13 11:12:10;;;;;;;6.53;3.10;;;;;;;;;;4949838;29;20215;-65
2022/03/13 11:14:38;;;;;;;5.67;3.40;;;;;;;;;;4941999;29;20285;-62
2022/03/13 11:17:06;;;;;;;3.63;2.90;;;;;;;;;;4942704;28;20207;-64
2022/03/13 11:19:35;;;;;;;3.93;3.03;;;;;;;;;;4946279;29;20215;-65
2022/03/13 11:22:04;;;;;;;3.33;2.83;;;;;;;;;;4946686;29;20211;-65
2022/03/13 11:24:33;;;;;;;6.87;3.57;;;;;;;;;;4933815;29;20211;-66
2022/03/13 11:27:01;;;;;;;3.43;3.13;;;;;;;;;;4939555;29;20241;-63
2022/03/13 11:29:47;;;;;;;3.80;3.10;;;;;;;;;;4947859;29;20214;-65
2022/03/13 11:32:31;;;;;;;5.20;3.90;;;;;;;;;;4944725;29;20207;-64
2022/03/13 11:35:18;;;;;;;4.00;3.57;;;;;;;;;;4931263;29;20212;-63
2022/03/13 11:37:45;;;;;;;7.57;3.47;;;;;;;;;;4943015;29;20218;-62
2022/03/13 11:40:15;;;;;;;3.83;3.37;;;;;;;;;;4936389;29;20254;-62
2022/03/13 11:42:47;;;;;;;5.30;3.60;;;;;;;;;;4937833;28;20219;-65
2022/03/13 11:45:33;;;;;;;4.47;3.57;;;;;;;;;;4945480;28;20211;-62
2022/03/13 11:48:32;;;;;;;4.73;2.97;;;;;;;;;;4944427;29;20274;-64
2022/03/13 11:51:01;;;;;;;0.87;0.87;;;;;;;;;;4944190;29;20214;-63
2022/03/13 11:53:29;;;;;;;5.63;3.10;;;;;;;;;;4943056;29;20221;-65
2022/03/13 11:56:09;;;;;;;4.00;3.13;;;;;;;;;;4939211;29;20219;-64
2022/03/13 11:58:41;;;;;;;6.00;3.00;;;;;;;;;;4945852;29;20224;-60
2022/03/13 12:01:09;;;;;;;3.87;3.57;;;;;;;;;;4942932;29;20239;-65
2022/03/13 12:03:36;;;;;;;3.70;2.60;;;;;;;;;;4943049;29;20214;-62
2022/03/13 12:06:05;;;;;;;3.67;3.37;;;;;;;;;;4940675;29;20214;-62
2022/03/13 12:08:51;;;;;;;5.53;3.40;;;;;;;;;;4935777;28;20216;-62
2022/03/13 12:11:39;;;;;;;5.37;3.73;;;;;;;;;;4934786;28;20212;-62
2022/03/13 12:14:08;;;;;;;4.07;3.60;;;;;;;;;;4936284;28;20247;-63
2022/03/13 12:16:35;;;;;;;5.10;3.60;;;;;;;;;;4942008;28;20229;-64
2022/03/13 12:19:02;;;;;;;4.30;3.70;;;;;;;;;;4945433;29;20300;-62
2022/03/13 12:21:30;;;;;;;4.67;2.93;;;;;;;;;;4930806;29;20240;-64
2022/03/13 12:23:58;;;;;;;4.83;3.57;;;;;;;;;;4935907;28;20651;-63
2022/03/13 12:31:57;;;;;;;3.80;3.30;;;;;;;;;;5101365;23;20271;-62
2022/03/13 12:34:24;;;;;;;7.05;5.32;;;;;;;;;;4924711;29;20458;-63
2022/03/13 12:36:53;;;;;;;5.63;4.90;;;;;;;;;;4916806;29;20788;-62
2022/03/13 12:39:21;;;;;;;6.00;4.40;;;;;;;;;;4926625;29;20589;-62
2022/03/13 12:41:56;;;;;;;7.03;3.37;;;;;;;;;;4928071;29;20224;-62
2022/03/13 12:44:23;;;;;;;5.47;4.23;;;;;;;;;;4926151;29;20216;-62
2022/03/13 12:46:52;;;;;;;5.93;4.27;;;;;;;;;;4924060;29;20216;-64
2022/03/13 12:49:27;;;;;;;4.73;4.00;;;;;;;;;;4927162;29;20299;-65
2022/03/13 12:51:55;;;;;;;5.13;3.10;;;;;;;;;;4927092;29;20285;-63
2022/03/13 12:54:27;;;;;;;8.10;4.73;;;;;;;;;;4928232;29;20214;-62
2022/03/13 12:56:55;;;;;;;5.30;3.50;;;;;;;;;;4928639;29;20216;-64
2022/03/13 12:59:23;;;;;;;5.70;4.20;;;;;;;;;;4930769;29;20235;-61
2022/03/13 13:02:02;;;;;;;6.77;4.10;;;;;;;;;;4930019;29;20236;-60
2022/03/13 13:04:31;;;;;;;4.57;4.05;;;;;;;;;;4929733;29;20200;-62
2022/03/13 13:06:58;;;;;;;6.97;4.20;;;;;;;;;;4929111;29;20214;-63
2022/03/13 13:09:28;;;;;;;6.80;4.13;;;;;;;;;;4930848;29;20207;-61
2022/03/13 13:11:56;;;;;;;5.43;4.00;;;;;;;;;;4927771;29;20212;-61
2022/03/13 13:14:24;;;;;;;6.43;4.50;;;;;;;;;;4921072;29;20742;-61
2022/03/13 13:16:51;;;;;;;4.97;3.87;;;;;;;;;;4929362;29;20310;-61
2022/03/13 13:19:19;;;;;;;7.23;3.93;;;;;;;;;;4928117;29;20223;-62
2022/03/13 13:21:55;;;;;;;5.80;4.23;;;;;;;;;;4928732;29;20875;-62
2022/03/13 13:24:25;;;;;;;5.07;3.87;;;;;;;;;;4929591;29;20307;-61
2022/03/13 13:26:52;;;;;;;6.68;3.95;;;;;;;;;;4929797;29;20208;-62
2022/03/13 13:29:31;;;;;;;7.30;4.07;;;;;;;;;;4929334;29;20817;-61
2022/03/13 13:32:13;;;;;;;5.17;4.00;;;;;;;;;;4928981;29;20239;-61
2022/03/13 13:34:41;;;;;;;5.70;4.70;;;;;;;;;;4928995;29;20692;-61
2022/03/13 13:37:10;;;;;;;9.03;4.67;;;;;;;;;;4929614;29;20582;-61
2022/03/13 13:39:37;;;;;;;5.47;4.27;;;;;;;;;;4929139;29;20211;-61
2022/03/13 13:42:04;;;;;;;8.20;4.70;;;;;;;;;;4929251;29;20235;-61
2022/03/13 13:44:31;;;;;;;10.07;5.23;;;;;;;;;;4929451;29;20223;-61
2022/03/13 13:47:05;;;;;;;5.97;4.23;;;;;;;;;;4928383;29;20949;-62
2022/03/13 13:49:33;;;;;;;7.13;4.30;;;;;;;;;;4925745;29;20216;-61
2022/03/13 13:52:11;;;;;;;6.93;4.73;;;;;;;;;;4927343;29;20215;-60
2022/03/13 13:54:38;;;;;;;6.20;4.30;;;;;;;;;;4927678;29;20238;-61
2022/03/13 13:57:05;;;;;;;6.03;4.35;;;;;;;;;;4928935;29;20343;-63
2022/03/13 13:59:34;;;;;;;10.63;4.90;;;;;;;;;;4928835;29;20927;-61
2022/03/13 14:02:16;;;;;;;6.03;4.73;;;;;;;;;;4928786;29;20232;-62
2022/03/13 14:04:45;;;;;;;7.38;5.00;;;;;;;;;;4928602;29;20238;-61
2022/03/13 14:07:14;;;;;;;5.47;4.80;;;;;;;;;;4928046;29;20215;-62
2022/03/13 14:09:41;;;;;;;7.65;4.35;;;;;;;;;;4929049;29;20227;-62
2022/03/13 14:12:09;;;;;;;6.65;4.50;;;;;;;;;;4923303;29;20887;-63
2022/03/13 14:14:36;;;;;;;8.73;5.00;;;;;;;;;;4912395;29;20228;-63
2022/03/13 14:17:03;;;;;;;7.53;5.20;;;;;;;;;;4927803;29;20773;-63
2022/03/13 14:19:34;;;;;;;9.23;4.03;;;;;;;;;;4928623;29;20220;-62
2022/03/13 14:22:01;;;;;;;8.88;4.90;;;;;;;;;;4928978;29;20227;-62
2022/03/13 14:24:32;;;;;;;9.25;4.72;;;;;;;;;;4928039;29;21020;-62
2022/03/13 14:26:59;;;;;;;12.40;6.28;;;;;;;;;;4927958;29;20212;-62
2022/03/13 14:29:26;;;;;;;10.85;6.20;;;;;;;;;;4928382;29;20244;-63
2022/03/13 14:31:53;;;;;;;11.30;5.95;;;;;;;;;;4928234;29;20311;-63
2022/03/13 14:34:22;;;;;;;9.27;5.10;;;;;;;;;;4928377;29;20271;-63
2022/03/13 14:36:51;;;;;;;10.40;5.32;;;;;;;;;;4928024;29;20212;-63
2022/03/13 14:39:18;;;;;;;11.05;6.45;;;;;;;;;;4927999;29;20212;-63
2022/03/13 14:41:47;;;;;;;9.37;6.00;;;;;;;;;;4909286;29;20588;-63
2022/03/13 14:44:14;;;;;;;9.70;5.63;;;;;;;;;;4922860;29;20215;-61
2022/03/13 14:46:41;;;;;;;9.20;5.88;;;;;;;;;;4921122;29;20216;-61
2022/03/13 14:49:08;;;;;;;11.30;5.65;;;;;;;;;;4928000;29;20219;-64
2022/03/13 14:51:35;;;;;;;11.40;6.28;;;;;;;;;;4927783;29;20701;-62
2022/03/13 14:54:02;;;;;;;9.02;6.22;;;;;;;;;;4927701;29;20215;-64
2022/03/13 14:56:29;;;;;;;8.82;6.00;;;;;;;;;;4926713;29;20204;-62
2022/03/13 14:58:57;;;;;;;9.98;5.72;;;;;;;;;;4928008;29;20235;-64